Time;durP1;ratioP1;P1;durP2;ratioP2;P2;SDS_P1;SDS_P2;PMS_P1;PMS_P2;Temp;Humidity;BMP_temperature;BMP_pressure;BME280_temperature;BME280_humidity;BME280_pressure;Samples;Min_cycle;Max_cycle;Signal;HPM_P1;HPM_P2
2021/05/20 00:02:20;;;;;;;2.83;1.60;;;9.10;99.90;;;;;;5000016;28;20116;-70
2021/05/20 00:04:48;;;;;;;2.67;1.60;;;9.10;99.90;;;;;;5009297;28;20050;-70
2021/05/20 00:07:15;;;;;;;9.90;1.70;;;9.10;99.90;;;;;;5006059;28;20096;-70
2021/05/20 00:09:42;;;;;;;1.70;1.40;;;9.10;99.90;;;;;;5004604;28;20104;-70
2021/05/20 00:12:09;;;;;;;7.28;1.83;;;9.00;99.90;;;;;;4998256;28;20159;-70
2021/05/20 00:14:36;;;;;;;13.55;2.40;;;9.00;99.90;;;;;;5006669;28;20098;-70
2021/05/20 00:17:03;;;;;;;17.75;2.78;;;9.00;99.90;;;;;;5003173;28;20073;-70
2021/05/20 00:19:29;;;;;;;20.40;2.90;;;9.00;99.90;;;;;;5040175;28;20678;-70
2021/05/20 00:21:56;;;;;;;24.10;3.00;;;9.00;99.90;;;;;;5020606;28;20131;-70
2021/05/20 00:24:23;;;;;;;46.00;3.17;;;8.90;99.90;;;;;;5008097;28;20042;-70
2021/05/20 00:26:50;;;;;;;33.63;2.75;;;8.90;99.90;;;;;;5006627;28;20045;-70
2021/05/20 00:29:18;;;;;;;26.48;3.58;;;8.80;99.90;;;;;;5006072;28;20054;-70
2021/05/20 00:31:44;;;;;;;29.20;2.60;;;8.80;99.90;;;;;;5013986;28;20049;-70
2021/05/20 00:34:11;;;;;;;5.95;2.17;;;8.80;99.90;;;;;;5008530;28;20054;-70
2021/05/20 00:36:38;;;;;;;11.77;2.50;;;8.80;99.90;;;;;;5004676;28;20104;-70
2021/05/20 00:39:05;;;;;;;8.95;2.47;;;8.70;99.90;;;;;;5008001;28;20061;-70
2021/05/20 00:41:32;;;;;;;11.75;2.30;;;8.70;99.90;;;;;;5003366;28;20056;-70
2021/05/20 00:43:59;;;;;;;16.05;2.50;;;8.70;99.90;;;;;;5005873;28;20045;-70
2021/05/20 00:46:25;;;;;;;13.48;2.50;;;8.70;99.90;;;;;;4995488;28;20038;-70
2021/05/20 00:48:52;;;;;;;31.70;2.78;;;8.70;99.90;;;;;;5023920;28;20050;-70
2021/05/20 00:51:19;;;;;;;20.65;2.50;;;8.70;99.90;;;;;;5002459;28;20109;-70
2021/05/20 00:53:48;;;;;;;14.18;2.65;;;8.70;99.90;;;;;;5031195;28;20108;-70
2021/05/20 00:56:18;;;;;;;12.48;2.35;;;8.60;99.90;;;;;;5004592;28;20054;-70
2021/05/20 00:58:45;;;;;;;25.73;3.08;;;8.60;99.90;;;;;;5001785;28;20093;-70
2021/05/20 01:01:13;;;;;;;14.68;2.40;;;8.60;99.90;;;;;;5003454;28;20049;-70
2021/05/20 01:03:40;;;;;;;14.80;2.50;;;8.60;99.90;;;;;;5021826;28;20489;-69
2021/05/20 01:06:07;;;;;;;30.88;2.80;;;8.60;99.90;;;;;;5006898;28;20504;-70
2021/05/20 01:08:34;;;;;;;15.95;2.67;;;8.60;99.90;;;;;;5003873;28;20050;-70
2021/05/20 01:11:01;;;;;;;21.70;2.30;;;8.50;99.90;;;;;;5005849;28;20466;-70
2021/05/20 01:13:28;;;;;;;15.85;2.38;;;8.50;99.90;;;;;;5015034;28;20050;-70
2021/05/20 01:15:55;;;;;;;8.50;1.95;;;8.50;99.90;;;;;;5004027;28;20156;-70
2021/05/20 01:18:21;;;;;;;11.85;2.33;;;8.50;99.90;;;;;;4998856;28;20078;-70
2021/05/20 01:20:48;;;;;;;4.40;2.10;;;8.40;99.90;;;;;;5001165;28;20108;-70
2021/05/20 01:23:17;;;;;;;3.25;2.13;;;8.40;99.90;;;;;;5008017;28;20462;-70
2021/05/20 01:25:50;;;;;;;5.00;2.13;;;8.40;99.90;;;;;;5000451;28;20100;-70
2021/05/20 01:28:22;;;;;;;2.22;1.80;;;8.30;99.90;;;;;;5007127;28;20092;-70
2021/05/20 01:30:50;;;;;;;4.53;2.13;;;8.30;99.90;;;;;;5001681;28;20136;-69
2021/05/20 01:33:17;;;;;;;4.32;2.17;;;8.30;99.90;;;;;;5005089;28;20139;-70
2021/05/20 01:35:46;;;;;;;3.75;2.00;;;8.30;99.90;;;;;;4999063;28;20502;-70
2021/05/20 01:40:58;;;;;;;8.98;2.35;;;8.20;99.90;;;;;;5003948;28;20161;-70
2021/05/20 01:43:26;;;;;;;7.85;2.30;;;8.20;99.90;;;;;;5005494;28;20410;-70
2021/05/20 01:46:00;;;;;;;13.00;2.20;;;8.20;99.90;;;;;;4999682;28;20092;-70
2021/05/20 01:48:43;;;;;;;5.97;2.03;;;8.30;99.90;;;;;;5011573;28;20379;-70
2021/05/20 01:51:12;;;;;;;10.60;2.20;;;8.30;99.90;;;;;;5001155;28;20528;-70
2021/05/20 01:53:42;;;;;;;6.63;2.38;;;8.30;99.90;;;;;;5009010;28;20057;-70
2021/05/20 01:56:10;;;;;;;8.55;2.30;;;8.30;99.90;;;;;;5007511;28;20073;-70
2021/05/20 01:58:37;;;;;;;7.78;2.60;;;8.30;99.90;;;;;;5010752;28;20107;-70
2021/05/20 02:01:04;;;;;;;8.70;2.40;;;8.30;99.90;;;;;;5005385;28;20049;-70
2021/05/20 02:03:32;;;;;;;13.23;2.63;;;8.40;99.90;;;;;;5005828;28;20092;-70
2021/05/20 02:06:02;;;;;;;5.95;2.30;;;8.40;99.90;;;;;;5002310;28;20046;-70
2021/05/20 02:08:29;;;;;;;4.28;2.50;;;8.40;99.90;;;;;;5007933;28;20046;-70
2021/05/20 02:10:56;;;;;;;4.35;2.25;;;8.40;99.90;;;;;;5005409;28;20058;-70
2021/05/20 02:13:24;;;;;;;6.13;2.53;;;8.40;99.90;;;;;;5009349;28;20096;-70
2021/05/20 02:15:51;;;;;;;6.30;2.60;;;8.50;99.90;;;;;;5006510;28;20054;-70
2021/05/20 02:18:18;;;;;;;3.42;2.65;;;8.50;99.90;;;;;;5002323;28;20129;-70
2021/05/20 02:20:44;;;;;;;4.38;2.60;;;8.60;99.90;;;;;;4999342;28;20042;-70
2021/05/20 02:23:12;;;;;;;4.75;3.20;;;8.60;99.90;;;;;;5007239;28;20554;-70
2021/05/20 02:25:40;;;;;;;4.88;2.90;;;8.60;99.90;;;;;;5013973;28;20086;-70
2021/05/20 02:28:07;;;;;;;4.28;2.92;;;8.70;99.90;;;;;;5009095;28;20617;-70
2021/05/20 02:30:34;;;;;;;4.18;2.92;;;8.70;99.90;;;;;;5006226;28;20108;-70
2021/05/20 02:33:01;;;;;;;3.38;2.92;;;8.70;99.90;;;;;;5022505;28;20061;-70
2021/05/20 02:35:28;;;;;;;6.40;2.50;;;8.80;99.90;;;;;;5022754;28;20058;-70
2021/05/20 02:37:56;;;;;;;11.00;3.58;;;8.80;99.90;;;;;;5012081;28;20049;-70
2021/05/20 02:40:23;;;;;;;13.63;3.67;;;8.80;99.90;;;;;;5009155;28;20050;-70
2021/05/20 02:42:50;;;;;;;34.50;4.53;;;8.80;99.90;;;;;;5008751;28;20042;-70
2021/05/20 02:45:22;;;;;;;10.70;4.28;;;8.80;99.90;;;;;;5002337;28;20512;-70
2021/05/20 02:47:51;;;;;;;43.58;4.72;;;8.80;99.90;;;;;;5008549;28;20050;-70
2021/05/20 02:50:21;;;;;;;44.92;5.15;;;8.80;99.90;;;;;;5005727;28;20509;-70
2021/05/20 02:52:48;;;;;;;26.88;4.07;;;8.80;99.90;;;;;;5002624;28;20058;-70
2021/05/20 02:55:17;;;;;;;31.08;4.30;;;8.90;99.90;;;;;;5007409;28;20441;-70
2021/05/20 02:57:50;;;;;;;16.92;4.35;;;8.90;99.90;;;;;;5005737;28;20111;-70
2021/05/20 03:00:21;;;;;;;13.43;4.30;;;8.90;99.90;;;;;;5023457;28;20048;-69
2021/05/20 03:02:50;;;;;;;45.65;4.68;;;8.90;99.90;;;;;;5016057;28;20046;-70
2021/05/20 03:05:18;;;;;;;68.90;5.10;;;8.90;99.90;;;;;;5003672;28;20104;-70
2021/05/20 03:07:46;;;;;;;54.17;5.03;;;9.00;99.90;;;;;;5005325;28;20108;-70
2021/05/20 03:10:14;;;;;;;36.70;4.75;;;9.00;99.90;;;;;;4999741;28;20042;-70
2021/05/20 03:12:41;;;;;;;79.32;6.13;;;9.00;99.90;;;;;;5004241;28;20057;-70
2021/05/20 03:15:08;;;;;;;80.73;6.80;;;9.00;99.90;;;;;;5004543;28;20069;-70
2021/05/20 03:17:35;;;;;;;88.80;5.80;;;8.90;99.90;;;;;;5001496;28;20364;-70
2021/05/20 03:20:04;;;;;;;47.78;5.40;;;9.00;99.90;;;;;;5004661;28;20378;-70
2021/05/20 03:22:31;;;;;;;39.97;4.60;;;8.90;99.90;;;;;;5000696;28;20049;-70
2021/05/20 03:24:58;;;;;;;49.53;5.22;;;8.90;99.90;;;;;;5007524;28;20642;-70
2021/05/20 03:27:24;;;;;;;123.68;6.90;;;9.00;99.90;;;;;;5004447;28;20100;-70
2021/05/20 03:29:51;;;;;;;59.53;5.45;;;9.00;99.90;;;;;;5009166;28;20045;-70
2021/05/20 03:32:18;;;;;;;47.22;4.70;;;8.90;99.90;;;;;;5003558;28;20420;-70
2021/05/20 03:34:45;;;;;;;44.00;5.30;;;8.90;99.90;;;;;;5010744;28;20062;-70
2021/05/20 03:37:12;;;;;;;78.82;5.70;;;8.90;99.90;;;;;;5001269;28;20058;-70
2021/05/20 03:39:39;;;;;;;90.13;6.90;;;8.90;99.90;;;;;;5008333;28;20088;-70
2021/05/20 03:42:06;;;;;;;52.05;5.43;;;8.90;99.90;;;;;;5020680;28;20552;-70
2021/05/20 03:44:32;;;;;;;123.65;7.15;;;8.90;99.90;;;;;;5006859;28;20104;-70
2021/05/20 03:46:59;;;;;;;77.07;5.93;;;8.90;99.90;;;;;;5000859;28;20076;-70
2021/05/20 03:49:26;;;;;;;84.25;6.68;;;8.80;99.90;;;;;;5005071;28;20135;-70
2021/05/20 03:51:53;;;;;;;65.70;4.90;;;8.80;99.90;;;;;;5002291;28;20453;-70
2021/05/20 03:54:20;;;;;;;70.68;6.05;;;8.80;99.90;;;;;;4999071;28;20104;-70
2021/05/20 03:56:47;;;;;;;39.10;5.40;;;8.90;99.90;;;;;;5001811;28;20053;-70
2021/05/20 03:59:14;;;;;;;46.58;5.32;;;8.90;99.90;;;;;;5004825;28;20138;-69
2021/05/20 04:01:40;;;;;;;57.88;5.88;;;8.90;99.90;;;;;;5000987;28;20120;-69
2021/05/20 04:04:07;;;;;;;46.95;5.30;;;8.90;99.90;;;;;;5006038;28;20041;-70
2021/05/20 04:06:34;;;;;;;54.10;6.22;;;8.80;99.90;;;;;;4998779;28;20042;-70
2021/05/20 04:09:02;;;;;;;22.90;4.53;;;8.90;99.90;;;;;;5007402;28;20042;-70
2021/05/20 04:11:29;;;;;;;55.58;6.22;;;8.80;99.90;;;;;;5004040;28;20058;-70
2021/05/20 04:13:56;;;;;;;46.58;5.15;;;8.90;99.90;;;;;;5006113;28;20077;-70
2021/05/20 04:16:25;;;;;;;62.25;6.55;;;8.90;99.90;;;;;;5005980;28;20092;-69
2021/05/20 04:18:53;;;;;;;85.43;6.72;;;8.80;99.90;;;;;;4996722;28;20112;-69
2021/05/20 04:21:20;;;;;;;89.00;6.40;;;8.80;99.90;;;;;;5001908;28;20057;-70
2021/05/20 04:23:47;;;;;;;86.65;6.50;;;8.70;99.90;;;;;;5001676;28;20383;-70
2021/05/20 04:26:19;;;;;;;117.68;6.90;;;8.70;99.90;;;;;;5000336;28;20042;-69
2021/05/20 04:28:47;;;;;;;62.75;4.95;;;8.70;99.90;;;;;;5010527;28;20050;-69
2021/05/20 04:31:15;;;;;;;81.93;5.78;;;8.70;99.90;;;;;;5000922;28;20105;-69
2021/05/20 04:33:42;;;;;;;22.42;5.40;;;8.70;99.90;;;;;;5005521;28;20050;-70
2021/05/20 04:36:09;;;;;;;34.75;5.38;;;8.70;99.90;;;;;;5008173;28;20077;-70
2021/05/20 04:38:36;;;;;;;55.17;5.18;;;8.80;99.90;;;;;;5010161;28;20057;-69
2021/05/20 04:41:03;;;;;;;69.47;5.75;;;8.80;99.90;;;;;;5001595;28;20121;-70
2021/05/20 04:43:30;;;;;;;41.95;5.70;;;8.90;99.90;;;;;;5006037;28;20050;-70
2021/05/20 04:45:57;;;;;;;49.13;5.03;;;8.90;99.90;;;;;;4998844;28;20394;-69
2021/05/20 04:48:24;;;;;;;54.17;5.30;;;9.00;99.90;;;;;;5019734;28;20045;-70
2021/05/20 04:50:51;;;;;;;48.15;5.75;;;9.00;99.90;;;;;;5000223;28;20050;-70
2021/05/20 04:53:18;;;;;;;49.25;5.50;;;9.10;99.90;;;;;;5004224;28;20041;-70
2021/05/20 04:55:45;;;;;;;60.13;5.68;;;9.10;99.90;;;;;;4999026;28;20474;-70
2021/05/20 04:58:11;;;;;;;36.42;4.60;;;9.20;99.90;;;;;;5006393;28;20092;-70
2021/05/20 05:00:38;;;;;;;36.05;5.03;;;9.20;99.90;;;;;;5019495;28;20453;-70
2021/05/20 05:03:06;;;;;;;32.03;5.40;;;9.20;99.90;;;;;;5005861;28;20090;-70
2021/05/20 05:05:32;;;;;;;40.28;5.57;;;9.30;99.90;;;;;;5018130;28;20442;-70
2021/05/20 05:07:59;;;;;;;21.65;5.18;;;9.30;99.90;;;;;;5006263;28;20046;-70
2021/05/20 05:10:26;;;;;;;15.13;4.90;;;9.30;99.90;;;;;;5006981;28;20085;-70
2021/05/20 05:12:53;;;;;;;38.88;6.00;;;9.40;99.90;;;;;;5003858;28;20050;-69
2021/05/20 05:15:20;;;;;;;20.63;5.10;;;9.40;99.90;;;;;;5002707;28;20850;-70
2021/05/20 05:17:46;;;;;;;16.08;5.18;;;9.40;99.90;;;;;;5000246;28;20100;-70
2021/05/20 05:20:13;;;;;;;23.83;5.80;;;9.50;99.90;;;;;;5000219;28;20054;-70
2021/05/20 05:22:40;;;;;;;10.75;5.57;;;9.50;99.90;;;;;;5000654;28;20421;-70
2021/05/20 05:25:07;;;;;;;34.45;6.45;;;9.50;99.90;;;;;;5005924;28;20061;-70
2021/05/20 05:27:34;;;;;;;36.25;5.88;;;9.60;99.90;;;;;;5038061;28;20057;-70
2021/05/20 05:30:01;;;;;;;31.30;6.28;;;9.60;99.90;;;;;;5007313;28;20068;-70
2021/05/20 05:32:28;;;;;;;11.68;5.93;;;9.60;99.90;;;;;;4996663;28;20054;-70
2021/05/20 05:34:55;;;;;;;17.58;6.28;;;9.70;99.90;;;;;;5018848;28;20122;-70
2021/05/20 05:37:21;;;;;;;28.73;6.75;;;9.70;99.90;;;;;;4998972;28;20053;-70
2021/05/20 05:39:49;;;;;;;10.02;5.93;;;9.80;99.90;;;;;;5019851;28;20100;-70
2021/05/20 05:42:16;;;;;;;10.63;6.45;;;9.80;99.90;;;;;;5002657;28;20061;-70
2021/05/20 05:44:43;;;;;;;14.23;6.65;;;9.80;99.90;;;;;;5004797;28;20046;-70
2021/05/20 05:47:09;;;;;;;20.25;7.40;;;9.90;99.90;;;;;;4999778;28;20493;-70
2021/05/20 05:49:48;;;;;;;26.95;6.80;;;9.90;99.90;;;;;;5007089;28;20046;-70
2021/05/20 05:52:22;;;;;;;;;;;9.90;99.90;;;;;;5001845;28;20046;-70
2021/05/20 05:54:52;;;;;;;53.42;8.65;;;10.00;99.90;;;;;;5004303;28;19925;-70
2021/05/20 05:57:19;;;;;;;36.45;7.15;;;10.00;99.90;;;;;;5004414;28;20046;-70
2021/05/20 05:59:49;;;;;;;37.03;8.02;;;10.00;99.90;;;;;;5003452;28;20089;-70
2021/05/20 06:02:17;;;;;;;57.88;9.18;;;9.90;99.90;;;;;;4999839;28;20046;-70
2021/05/20 06:04:44;;;;;;;72.97;10.52;;;9.90;99.90;;;;;;4996399;28;20046;-70
2021/05/20 06:07:11;;;;;;;60.35;8.35;;;9.80;99.90;;;;;;4999705;28;20104;-70
2021/05/20 06:09:38;;;;;;;68.95;8.43;;;9.80;99.90;;;;;;5008470;28;20050;-70
2021/05/20 06:12:05;;;;;;;57.63;9.13;;;9.80;99.90;;;;;;5001978;28;20085;-70
2021/05/20 06:14:32;;;;;;;60.63;7.90;;;9.80;99.90;;;;;;5002178;28;20050;-70
2021/05/20 06:16:59;;;;;;;81.43;8.70;;;9.80;99.90;;;;;;5000102;28;20398;-70
2021/05/20 06:19:25;;;;;;;55.70;7.70;;;9.80;99.90;;;;;;4986164;28;20113;-70
2021/05/20 06:21:52;;;;;;;56.78;8.68;;;9.90;99.90;;;;;;4983354;28;20509;-70
2021/05/20 06:24:19;;;;;;;94.72;9.10;;;9.90;99.90;;;;;;4985727;28;20097;-70
2021/05/20 06:26:46;;;;;;;66.35;7.18;;;10.00;99.90;;;;;;4986957;28;20050;-70
2021/05/20 06:29:12;;;;;;;49.90;7.20;;;10.00;99.90;;;;;;4983730;28;20301;-70
2021/05/20 06:31:39;;;;;;;93.20;9.00;;;10.00;99.90;;;;;;4982914;28;20054;-70
2021/05/20 06:34:06;;;;;;;50.92;8.40;;;10.10;99.90;;;;;;5001777;28;20464;-70
2021/05/20 06:36:33;;;;;;;41.95;9.70;;;10.10;99.90;;;;;;5002530;28;20465;-69
2021/05/20 06:38:59;;;;;;;36.28;8.57;;;10.10;99.90;;;;;;4988893;28;20142;-70
2021/05/20 06:41:26;;;;;;;63.40;9.30;;;10.10;99.90;;;;;;4986935;28;20090;-70
2021/05/20 06:43:53;;;;;;;43.13;9.48;;;10.10;99.90;;;;;;4987621;28;20089;-70
2021/05/20 06:46:20;;;;;;;38.55;8.57;;;10.10;99.90;;;;;;4987816;28;20478;-70
2021/05/20 06:48:46;;;;;;;41.22;8.25;;;10.10;99.90;;;;;;4989816;28;20331;-70
2021/05/20 06:51:14;;;;;;;27.02;8.90;;;10.10;99.90;;;;;;5001012;28;20453;-70
2021/05/20 06:53:47;;;;;;;27.38;9.23;;;10.10;99.90;;;;;;5006237;28;20045;-70
2021/05/20 06:56:21;;;;;;;;;;;10.10;99.90;;;;;;4987029;28;20049;-70
2021/05/20 07:01:33;;;;;;;24.45;9.32;;;10.10;99.90;;;;;;4986927;28;20459;-70
2021/05/20 07:04:25;;;;;;;22.17;9.13;;;10.10;99.90;;;;;;5019158;28;20109;-70
2021/05/20 07:06:52;;;;;;;26.98;9.40;;;10.10;99.90;;;;;;4986778;28;20126;-69
2021/05/20 07:09:25;;;;;;;19.77;9.50;;;10.10;99.90;;;;;;4989128;28;20046;-70
2021/05/20 07:11:52;;;;;;;40.70;11.48;;;10.10;99.90;;;;;;5001747;28;20116;-69
2021/05/20 07:14:18;;;;;;;20.60;11.52;;;10.10;99.90;;;;;;5020173;28;20487;-69
2021/05/20 07:16:46;;;;;;;18.65;10.40;;;10.00;99.90;;;;;;4986997;28;20057;-69
2021/05/20 07:19:21;;;;;;;9.85;6.85;;;10.00;99.90;;;;;;5018857;28;20054;-69
2021/05/20 07:21:49;;;;;;;31.15;10.95;;;10.00;99.90;;;;;;4986010;28;20572;-69
2021/05/20 07:24:16;;;;;;;;;;;10.00;99.90;;;;;;4988771;28;20132;-69
2021/05/20 07:26:46;;;;;;;15.98;9.65;;;10.00;99.90;;;;;;4986392;28;19921;-69
2021/05/20 07:29:13;;;;;;;24.90;11.95;;;10.00;99.90;;;;;;4986456;28;24422;-70
2021/05/20 07:31:40;;;;;;;23.95;10.30;;;10.10;99.90;;;;;;5017399;28;20398;-69
2021/05/20 07:34:08;;;;;;;22.13;10.00;;;10.10;99.90;;;;;;4988592;28;20045;-70
2021/05/20 07:36:35;;;;;;;18.30;11.63;;;10.10;99.90;;;;;;4988538;28;20401;-70
2021/05/20 07:39:04;;;;;;;16.77;10.50;;;10.20;99.90;;;;;;4988255;28;20397;-69
2021/05/20 07:41:31;;;;;;;15.23;10.75;;;10.20;99.90;;;;;;5001013;28;20050;-69
2021/05/20 07:43:58;;;;;;;14.85;10.57;;;10.20;99.90;;;;;;4988242;28;20178;-70
2021/05/20 07:46:25;;;;;;;13.40;10.07;;;10.20;99.90;;;;;;4989826;28;20482;-70
2021/05/20 07:48:52;;;;;;;13.02;9.63;;;10.30;99.90;;;;;;4986545;28;20054;-70
2021/05/20 07:51:19;;;;;;;13.43;9.65;;;10.30;99.90;;;;;;4984736;28;20464;-70
2021/05/20 07:53:46;;;;;;;13.07;9.73;;;10.40;99.90;;;;;;4987560;28;20042;-69
2021/05/20 07:56:12;;;;;;;13.68;10.18;;;10.50;99.90;;;;;;4987421;28;20074;-70
2021/05/20 07:58:39;;;;;;;14.43;10.48;;;10.60;99.90;;;;;;4989268;28;20089;-70
2021/05/20 08:01:08;;;;;;;13.30;9.50;;;10.80;99.90;;;;;;4988915;28;20093;-70
2021/05/20 08:06:14;;;;;;;13.20;9.43;;;10.90;99.90;;;;;;4986442;28;20529;-70
2021/05/20 08:08:55;;;;;;;10.88;8.35;;;11.00;99.90;;;;;;5018141;28;20302;-70
2021/05/20 08:11:22;;;;;;;11.00;8.45;;;11.10;99.90;;;;;;4986601;28;20096;-70
2021/05/20 08:13:49;;;;;;;13.23;9.82;;;11.20;99.90;;;;;;4988901;28;20045;-69
2021/05/20 08:16:16;;;;;;;11.45;8.93;;;11.30;99.90;;;;;;5019595;28;20441;-70
2021/05/20 08:18:43;;;;;;;12.23;9.75;;;11.40;99.90;;;;;;4987346;28;20086;-69
2021/05/20 08:21:10;;;;;;;12.43;9.73;;;11.40;99.90;;;;;;4986715;28;20784;-70
2021/05/20 08:23:37;;;;;;;11.40;9.98;;;11.50;99.90;;;;;;5018556;28;20050;-70
2021/05/20 08:26:05;;;;;;;12.55;10.50;;;11.50;99.90;;;;;;5001172;28;20144;-70
2021/05/20 08:28:31;;;;;;;11.10;9.88;;;11.50;99.90;;;;;;4986113;28;20564;-70
2021/05/20 08:30:58;;;;;;;11.77;10.57;;;11.50;99.90;;;;;;4985333;28;20563;-69
2021/05/20 08:33:25;;;;;;;13.10;11.10;;;11.60;99.90;;;;;;4988675;28;20501;-70
2021/05/20 08:35:53;;;;;;;12.20;10.98;;;11.70;99.90;;;;;;4985675;28;20564;-70
2021/05/20 08:38:20;;;;;;;11.20;10.02;;;11.80;99.90;;;;;;4989196;28;20052;-70
2021/05/20 08:40:46;;;;;;;11.82;10.30;;;12.00;99.90;;;;;;4984379;28;20128;-69
2021/05/20 08:43:13;;;;;;;11.82;10.32;;;12.10;99.90;;;;;;4985081;28;20100;-69
2021/05/20 08:45:40;;;;;;;11.05;9.95;;;12.10;99.90;;;;;;4984776;28;20046;-70
2021/05/20 08:48:07;;;;;;;9.85;8.85;;;12.10;99.90;;;;;;5003811;28;20488;-69
2021/05/20 08:50:35;;;;;;;8.80;7.90;;;12.20;99.90;;;;;;4986909;28;20576;-70
2021/05/20 08:53:03;;;;;;;9.35;8.35;;;12.30;99.90;;;;;;5001726;28;20054;-70
2021/05/20 08:55:35;;;;;;;8.23;7.25;;;12.40;99.90;;;;;;4987754;28;24757;-69
2021/05/20 08:58:04;;;;;;;7.95;7.15;;;12.60;99.90;;;;;;5017273;28;20136;-69
2021/05/20 09:00:32;;;;;;;7.15;6.38;;;12.80;99.90;;;;;;4984873;28;20054;-69
2021/05/20 09:03:09;;;;;;;8.68;7.78;;;13.00;99.90;;;;;;4985103;28;20097;-69
2021/05/20 09:05:37;;;;;;;9.00;8.10;;;13.20;99.90;;;;;;4984500;28;20080;-69
2021/05/20 09:08:09;;;;;;;6.93;5.82;;;13.20;99.90;;;;;;4985274;28;20512;-69
2021/05/20 09:10:37;;;;;;;7.85;7.05;;;13.20;99.90;;;;;;4985900;28;20042;-69
2021/05/20 09:13:34;;;;;;;7.47;6.50;;;13.20;99.90;;;;;;4985293;28;20512;-69
2021/05/20 09:16:11;;;;;;;9.75;8.75;;;13.20;99.90;;;;;;4986034;28;20160;-69
2021/05/20 09:18:42;;;;;;;9.02;7.75;;;13.10;99.90;;;;;;4986841;28;20053;-70
2021/05/20 09:21:09;;;;;;;8.50;7.57;;;13.10;99.90;;;;;;5015765;28;20124;-68
2021/05/20 09:23:49;;;;;;;8.40;7.23;;;13.00;99.90;;;;;;4985182;28;20050;-69
2021/05/20 09:26:16;;;;;;;8.80;7.30;;;13.00;99.90;;;;;;4983974;28;20105;-69
2021/05/20 09:28:47;;;;;;;7.88;6.80;;;13.00;99.90;;;;;;4986484;28;20492;-69
2021/05/20 09:31:35;;;;;;;7.03;6.28;;;13.20;99.90;;;;;;4998435;28;20038;-69
2021/05/20 09:34:11;;;;;;;7.35;6.15;;;13.20;99.90;;;;;;4986149;28;20345;-69
2021/05/20 09:36:49;;;;;;;7.25;6.05;;;13.30;99.90;;;;;;4985583;28;20069;-69
2021/05/20 09:39:16;;;;;;;;;;;13.40;99.90;;;;;;4986589;28;20493;-69
2021/05/20 09:41:44;;;;;;;7.50;6.70;;;13.50;99.90;;;;;;4987221;28;19926;-70
2021/05/20 09:44:30;;;;;;;7.07;6.07;;;13.60;99.90;;;;;;4986196;28;20229;-70
2021/05/20 09:46:59;;;;;;;7.85;7.05;;;13.70;99.90;;;;;;4984958;28;20042;-69
2021/05/20 09:49:26;;;;;;;8.05;7.20;;;13.70;99.90;;;;;;4986234;28;20053;-69
2021/05/20 09:52:19;;;;;;;6.78;6.05;;;13.70;99.90;;;;;;4984810;28;20101;-69
2021/05/20 09:54:47;;;;;;;7.15;6.45;;;13.80;99.90;;;;;;4986601;28;20480;-69
2021/05/20 09:57:32;;;;;;;8.70;7.80;;;13.80;99.90;;;;;;4984092;28;20050;-69
2021/05/20 10:00:10;;;;;;;8.70;7.80;;;14.00;99.90;;;;;;4987207;28;20046;-69
2021/05/20 10:02:56;;;;;;;;;;;14.00;99.90;;;;;;5015859;28;20485;-69
2021/05/20 10:05:28;;;;;;;8.90;7.97;;;14.00;99.90;;;;;;4988855;28;19929;-70
2021/05/20 10:07:56;;;;;;;10.95;9.95;;;14.10;99.90;;;;;;5018979;28;20474;-70
2021/05/20 10:10:35;;;;;;;9.70;8.70;;;14.20;99.90;;;;;;4988896;28;20052;-69
2021/05/20 10:13:13;;;;;;;9.02;8.13;;;14.30;99.90;;;;;;4987476;28;20054;-70
2021/05/20 10:15:40;;;;;;;;;;;14.40;99.90;;;;;;4989903;28;20153;-69
2021/05/20 10:18:10;;;;;;;9.55;8.55;;;14.50;99.90;;;;;;4990968;28;20408;-69
2021/05/20 10:20:38;;;;;;;8.57;7.68;;;14.60;99.90;;;;;;4989152;28;20046;-69
2021/05/20 10:23:10;;;;;;;6.45;5.75;;;14.70;99.90;;;;;;4991558;28;20046;-69
2021/05/20 10:25:38;;;;;;;10.57;7.32;;;14.70;99.90;;;;;;4990126;28;20042;-70
2021/05/20 10:28:06;;;;;;;;;;;14.80;99.90;;;;;;5005520;28;20054;-70
2021/05/20 10:30:34;;;;;;;;;;;14.90;99.90;;;;;;4990504;28;19930;-70
2021/05/20 10:33:01;;;;;;;7.63;6.82;;;15.00;99.90;;;;;;4989475;28;20253;-69
2021/05/20 10:35:43;;;;;;;8.05;7.25;;;15.10;99.90;;;;;;4989186;28;20050;-70
2021/05/20 10:38:17;;;;;;;8.30;7.38;;;15.20;99.90;;;;;;4988579;28;20057;-70
2021/05/20 10:40:44;;;;;;;9.15;8.15;;;15.30;99.90;;;;;;4987136;28;20050;-70
2021/05/20 10:43:17;;;;;;;8.70;7.70;;;15.30;99.90;;;;;;4988232;28;20069;-69
2021/05/20 10:46:08;;;;;;;8.48;7.57;;;15.30;99.90;;;;;;5001654;28;20136;-70
2021/05/20 10:48:54;;;;;;;7.93;7.10;;;15.20;99.90;;;;;;4987214;28;20074;-70
2021/05/20 10:51:24;;;;;;;9.95;8.43;;;15.20;99.90;;;;;;4993618;28;20131;-70
2021/05/20 10:54:06;;;;;;;8.93;8.02;;;15.20;99.90;;;;;;4988342;28;20077;-70
2021/05/20 10:56:45;;;;;;;8.75;7.13;;;15.20;99.90;;;;;;5003819;28;20151;-70
2021/05/20 10:59:36;;;;;;;9.05;8.13;;;15.40;99.90;;;;;;4988634;28;20043;-70
2021/05/20 11:02:03;;;;;;;9.75;8.75;;;15.50;99.90;;;;;;4987296;28;20056;-70
2021/05/20 11:04:38;;;;;;;9.55;8.63;;;15.50;99.90;;;;;;4988646;28;20474;-69
2021/05/20 11:07:05;;;;;;;8.48;7.55;;;15.50;99.90;;;;;;4988018;28;20090;-70
2021/05/20 11:09:45;;;;;;;8.97;8.07;;;15.60;99.90;;;;;;4991399;28;20135;-70
2021/05/20 11:12:13;;;;;;;10.98;9.45;;;15.80;99.90;;;;;;4986304;28;20047;-70
2021/05/20 11:14:40;;;;;;;9.80;8.80;;;15.90;99.90;;;;;;4988065;28;20442;-69
2021/05/20 11:17:30;;;;;;;10.47;9.43;;;16.00;99.90;;;;;;4988581;28;20058;-70
2021/05/20 11:20:28;;;;;;;11.43;10.23;;;16.10;99.90;;;;;;4990326;28;20575;-71
2021/05/20 11:23:15;;;;;;;11.57;10.38;;;16.10;99.90;;;;;;4988100;28;20050;-69
2021/05/20 11:25:43;;;;;;;10.23;8.98;;;16.10;99.90;;;;;;4987937;28;20050;-70
2021/05/20 11:28:11;;;;;;;10.50;9.40;;;16.20;99.90;;;;;;4989205;28;20097;-70
2021/05/20 11:30:38;;;;;;;12.48;11.18;;;16.10;99.90;;;;;;4986065;28;20050;-70
2021/05/20 11:33:05;;;;;;;11.23;10.02;;;16.00;99.90;;;;;;4991867;28;20050;-70
2021/05/20 11:35:37;;;;;;;11.35;10.15;;;16.00;99.90;;;;;;4988864;28;20108;-70
2021/05/20 11:38:04;;;;;;;11.40;10.20;;;16.00;99.90;;;;;;4987173;28;20050;-70
2021/05/20 11:40:34;;;;;;;11.85;10.55;;;16.00;99.90;;;;;;4987748;28;20161;-70
2021/05/20 11:43:02;;;;;;;11.68;9.80;;;15.90;99.90;;;;;;4987373;28;20096;-70
2021/05/20 11:45:31;;;;;;;12.75;10.75;;;15.80;99.90;;;;;;5018543;28;20050;-70
2021/05/20 11:47:59;;;;;;;12.13;10.82;;;15.80;99.90;;;;;;4987887;28;20054;-70
2021/05/20 11:50:28;;;;;;;11.65;10.23;;;15.70;99.90;;;;;;4987201;28;20089;-70
2021/05/20 11:52:56;;;;;;;11.05;9.73;;;15.70;99.90;;;;;;4987595;28;20069;-70
2021/05/20 11:55:24;;;;;;;11.23;9.40;;;15.70;99.90;;;;;;5002008;28;20128;-70
2021/05/20 11:58:01;;;;;;;11.63;10.27;;;15.70;99.90;;;;;;5002693;28;20078;-70
2021/05/20 12:00:28;;;;;;;11.98;10.82;;;15.70;99.90;;;;;;4986930;28;20125;-70
2021/05/20 12:02:56;;;;;;;10.57;9.43;;;15.70;99.90;;;;;;4985209;28;20046;-69
2021/05/20 12:05:25;;;;;;;11.30;10.18;;;15.60;99.90;;;;;;4991368;28;20050;-70
2021/05/20 12:08:19;;;;;;;11.20;10.10;;;15.60;99.90;;;;;;4988263;28;20108;-70
2021/05/20 12:10:51;;;;;;;11.27;10.18;;;15.50;99.90;;;;;;4986267;28;20081;-70
2021/05/20 12:13:18;;;;;;;9.80;8.13;;;15.50;99.90;;;;;;4994411;28;20050;-70
2021/05/20 12:15:48;;;;;;;10.80;9.70;;;15.50;99.90;;;;;;4986087;28;20053;-70
2021/05/20 12:18:15;;;;;;;9.80;8.82;;;15.60;99.90;;;;;;4987794;28;20089;-70
2021/05/20 12:20:47;;;;;;;9.25;8.35;;;15.70;99.90;;;;;;5005207;28;20109;-70
2021/05/20 12:23:16;;;;;;;7.60;6.80;;;15.80;99.90;;;;;;4989597;28;20053;-70
2021/05/20 12:25:42;;;;;;;8.25;7.40;;;15.90;99.90;;;;;;4985357;28;20112;-69
2021/05/20 12:28:10;;;;;;;8.55;7.60;;;16.00;99.90;;;;;;5003598;28;20050;-69
2021/05/20 12:30:40;;;;;;;7.82;7.03;;;16.10;99.90;;;;;;4985102;28;20046;-70
2021/05/20 12:33:09;;;;;;;6.93;6.23;;;16.10;99.90;;;;;;5003785;28;20474;-70
2021/05/20 12:35:43;;;;;;;7.50;6.45;;;16.20;99.90;;;;;;4985310;28;20457;-70
2021/05/20 12:38:19;;;;;;;5.80;5.20;;;16.30;99.90;;;;;;4985442;28;20466;-70
2021/05/20 12:40:54;;;;;;;6.90;5.55;;;16.30;99.90;;;;;;4985757;28;20046;-70
2021/05/20 12:43:28;;;;;;;6.03;5.38;;;16.30;99.90;;;;;;4987640;28;20046;-70
2021/05/20 12:46:04;;;;;;;6.07;5.35;;;16.30;99.90;;;;;;4983128;28;20371;-70
2021/05/20 12:48:55;;;;;;;6.28;5.68;;;16.20;99.90;;;;;;4986204;28;20047;-70
2021/05/20 12:51:24;;;;;;;5.57;4.65;;;16.10;99.90;;;;;;4985452;28;20057;-70
2021/05/20 12:53:50;;;;;;;6.15;5.55;;;16.10;99.90;;;;;;4989094;28;20097;-70
2021/05/20 12:56:45;;;;;;;6.88;5.32;;;16.00;99.90;;;;;;5018188;28;20105;-70
2021/05/20 12:59:14;;;;;;;5.15;4.65;;;16.00;99.90;;;;;;4991542;28;20042;-70
2021/05/20 13:01:49;;;;;;;6.03;4.13;;;15.90;99.90;;;;;;4998701;28;20285;-70
2021/05/20 13:04:29;;;;;;;5.57;4.50;;;15.80;99.90;;;;;;4985573;28;20104;-70
2021/05/20 13:07:01;;;;;;;5.13;4.10;;;15.80;99.90;;;;;;4985399;28;20412;-70